sensor_id;sensor_type;location;lat;lon;timestamp;temperature;humidity
33207;DHT22;19565;46.602;11.534;2023-09-08T00:01:40;19.90;99.90
33207;DHT22;19565;46.602;11.534;2023-09-08T00:04:09;19.90;99.90
33207;DHT22;19565;46.602;11.534;2023-09-08T00:06:38;19.90;99.90
33207;DHT22;19565;46.602;11.534;2023-09-08T00:09:06;19.80;99.90
33207;DHT22;19565;46.602;11.534;2023-09-08T00:11:35;19.80;99.90
33207;DHT22;19565;46.602;11.534;2023-09-08T00:14:03;19.80;99.90
33207;DHT22;19565;46.602;11.534;2023-09-08T00:16:32;19.90;99.90
33207;DHT22;19565;46.602;11.534;2023-09-08T00:19:00;19.80;99.90
33207;DHT22;19565;46.602;11.534;2023-09-08T00:21:29;19.90;99.90
33207;DHT22;19565;46.602;11.534;2023-09-08T00:23:57;19.80;99.90
33207;DHT22;19565;46.602;11.534;2023-09-08T00:26:25;19.80;99.90
33207;DHT22;19565;46.602;11.534;2023-09-08T00:28:53;19.80;99.90
33207;DHT22;19565;46.602;11.534;2023-09-08T00:31:21;19.80;99.90
33207;DHT22;19565;46.602;11.534;2023-09-08T00:33:50;19.80;99.90
33207;DHT22;19565;46.602;11.534;2023-09-08T00:36:19;19.80;99.90
33207;DHT22;19565;46.602;11.534;2023-09-08T00:38:47;19.80;99.90
33207;DHT22;19565;46.602;11.534;2023-09-08T00:41:15;19.80;99.90
33207;DHT22;19565;46.602;11.534;2023-09-08T00:43:43;19.70;99.90
33207;DHT22;19565;46.602;11.534;2023-09-08T00:46:11;19.70;99.90
33207;DHT22;19565;46.602;11.534;2023-09-08T00:48:39;19.60;99.90
33207;DHT22;19565;46.602;11.534;2023-09-08T00:51:09;19.60;99.90
33207;DHT22;19565;46.602;11.534;2023-09-08T00:53:37;19.60;99.90
33207;DHT22;19565;46.602;11.534;2023-09-08T00:56:05;19.50;99.90
33207;DHT22;19565;46.602;11.534;2023-09-08T00:58:34;19.50;99.90
33207;DHT22;19565;46.602;11.534;2023-09-08T01:01:03;19.50;99.90
33207;DHT22;19565;46.602;11.534;2023-09-08T01:03:32;19.50;99.90
33207;DHT22;19565;46.602;11.534;2023-09-08T01:06:01;19.50;99.90
33207;DHT22;19565;46.602;11.534;2023-09-08T01:08:31;19.50;99.90
33207;DHT22;19565;46.602;11.534;2023-09-08T01:10:59;19.50;99.90
33207;DHT22;19565;46.602;11.534;2023-09-08T01:13:27;19.50;99.90
33207;DHT22;19565;46.602;11.534;2023-09-08T01:15:55;19.40;99.90
33207;DHT22;19565;46.602;11.534;2023-09-08T01:18:23;19.40;99.90
33207;DHT22;19565;46.602;11.534;2023-09-08T01:21:13;19.40;99.90
33207;DHT22;19565;46.602;11.534;2023-09-08T01:24:15;19.40;99.90
33207;DHT22;19565;46.602;11.534;2023-09-08T01:26:48;19.40;99.90
33207;DHT22;19565;46.602;11.534;2023-09-08T01:29:17;19.30;99.90
33207;DHT22;19565;46.602;11.534;2023-09-08T01:31:45;19.40;99.90
33207;DHT22;19565;46.602;11.534;2023-09-08T01:34:13;19.40;99.90
33207;DHT22;19565;46.602;11.534;2023-09-08T01:36:42;19.30;99.90
33207;DHT22;19565;46.602;11.534;2023-09-08T01:39:10;19.30;99.90
33207;DHT22;19565;46.602;11.534;2023-09-08T01:41:38;19.30;99.90
33207;DHT22;19565;46.602;11.534;2023-09-08T01:44:07;19.30;99.90
33207;DHT22;19565;46.602;11.534;2023-09-08T01:46:37;19.30;99.90
33207;DHT22;19565;46.602;11.534;2023-09-08T01:49:07;19.30;99.90
33207;DHT22;19565;46.602;11.534;2023-09-08T01:51:36;19.30;99.90
33207;DHT22;19565;46.602;11.534;2023-09-08T01:54:04;19.30;99.90
33207;DHT22;19565;46.602;11.534;2023-09-08T01:56:32;19.30;99.90
33207;DHT22;19565;46.602;11.534;2023-09-08T01:59:00;19.40;99.90
33207;DHT22;19565;46.602;11.534;2023-09-08T02:01:29;19.40;99.90
33207;DHT22;19565;46.602;11.534;2023-09-08T02:03:57;19.40;99.90
33207;DHT22;19565;46.602;11.534;2023-09-08T02:06:25;19.40;99.90
33207;DHT22;19565;46.602;11.534;2023-09-08T02:08:53;19.30;99.90
33207;DHT22;19565;46.602;11.534;2023-09-08T02:11:21;19.30;99.90
33207;DHT22;19565;46.602;11.534;2023-09-08T02:13:49;19.30;99.90
33207;DHT22;19565;46.602;11.534;2023-09-08T02:16:17;19.30;99.90
33207;DHT22;19565;46.602;11.534;2023-09-08T02:18:46;19.30;99.90
33207;DHT22;19565;46.602;11.534;2023-09-08T02:21:14;19.30;99.90
33207;DHT22;19565;46.602;11.534;2023-09-08T02:23:42;19.20;99.90
33207;DHT22;19565;46.602;11.534;2023-09-08T02:26:10;19.20;99.90
33207;DHT22;19565;46.602;11.534;2023-09-08T02:28:38;19.30;99.90
33207;DHT22;19565;46.602;11.534;2023-09-08T02:31:06;19.30;99.90
33207;DHT22;19565;46.602;11.534;2023-09-08T02:33:34;19.30;99.90
33207;DHT22;19565;46.602;11.534;2023-09-08T02:36:04;19.30;99.90
33207;DHT22;19565;46.602;11.534;2023-09-08T02:38:33;19.30;99.90
33207;DHT22;19565;46.602;11.534;2023-09-08T02:41:01;19.30;99.90
33207;DHT22;19565;46.602;11.534;2023-09-08T02:43:29;19.30;99.90
33207;DHT22;19565;46.602;11.534;2023-09-08T02:45:57;19.30;99.90
33207;DHT22;19565;46.602;11.534;2023-09-08T02:48:25;19.30;99.90
33207;DHT22;19565;46.602;11.534;2023-09-08T02:50:53;19.30;99.90
33207;DHT22;19565;46.602;11.534;2023-09-08T02:53:23;19.30;99.90
33207;DHT22;19565;46.602;11.534;2023-09-08T02:55:55;19.30;99.90
33207;DHT22;19565;46.602;11.534;2023-09-08T02:58:23;19.20;99.90
33207;DHT22;19565;46.602;11.534;2023-09-08T03:00:51;19.20;99.90
33207;DHT22;19565;46.602;11.534;2023-09-08T03:03:19;19.20;99.90
33207;DHT22;19565;46.602;11.534;2023-09-08T03:05:47;19.20;99.90
33207;DHT22;19565;46.602;11.534;2023-09-08T03:08:15;19.20;99.90
33207;DHT22;19565;46.602;11.534;2023-09-08T03:10:45;19.10;99.90
33207;DHT22;19565;46.602;11.534;2023-09-08T03:13:15;19.10;99.90
33207;DHT22;19565;46.602;11.534;2023-09-08T03:15:42;19.10;99.90
33207;DHT22;19565;46.602;11.534;2023-09-08T03:18:10;19.10;99.90
33207;DHT22;19565;46.602;11.534;2023-09-08T03:20:42;19.10;99.90
33207;DHT22;19565;46.602;11.534;2023-09-08T03:23:10;19.10;99.90
33207;DHT22;19565;46.602;11.534;2023-09-08T03:25:38;19.10;99.90
33207;DHT22;19565;46.602;11.534;2023-09-08T03:28:08;19.10;99.90
33207;DHT22;19565;46.602;11.534;2023-09-08T03:30:36;19.10;99.90
33207;DHT22;19565;46.602;11.534;2023-09-08T03:33:04;19.00;99.90
33207;DHT22;19565;46.602;11.534;2023-09-08T03:35:32;19.00;99.90
33207;DHT22;19565;46.602;11.534;2023-09-08T03:38:00;18.90;99.90
33207;DHT22;19565;46.602;11.534;2023-09-08T03:40:28;19.00;99.90
33207;DHT22;19565;46.602;11.534;2023-09-08T03:42:56;19.00;99.90
33207;DHT22;19565;46.602;11.534;2023-09-08T03:45:25;19.00;99.90
33207;DHT22;19565;46.602;11.534;2023-09-08T03:47:53;19.00;99.90
33207;DHT22;19565;46.602;11.534;2023-09-08T03:50:21;19.00;99.90
33207;DHT22;19565;46.602;11.534;2023-09-08T03:52:50;18.90;99.90
33207;DHT22;19565;46.602;11.534;2023-09-08T03:55:18;18.90;99.90
33207;DHT22;19565;46.602;11.534;2023-09-08T03:57:46;18.90;99.90
33207;DHT22;19565;46.602;11.534;2023-09-08T04:00:14;18.90;99.90
33207;DHT22;19565;46.602;11.534;2023-09-08T04:02:47;18.90;99.90
33207;DHT22;19565;46.602;11.534;2023-09-08T04:05:16;18.90;99.90
33207;DHT22;19565;46.602;11.534;2023-09-08T04:07:45;18.90;99.90
33207;DHT22;19565;46.602;11.534;2023-09-08T04:10:13;18.90;99.90
33207;DHT22;19565;46.602;11.534;2023-09-08T04:12:41;18.90;99.90
33207;DHT22;19565;46.602;11.534;2023-09-08T04:15:10;18.90;99.90
33207;DHT22;19565;46.602;11.534;2023-09-08T04:17:38;18.80;99.90
33207;DHT22;19565;46.602;11.534;2023-09-08T04:20:08;18.70;99.90
33207;DHT22;19565;46.602;11.534;2023-09-08T04:22:36;18.70;99.90
33207;DHT22;19565;46.602;11.534;2023-09-08T04:25:05;18.80;99.90
33207;DHT22;19565;46.602;11.534;2023-09-08T04:27:33;18.80;99.90
33207;DHT22;19565;46.602;11.534;2023-09-08T04:30:04;18.70;99.90
33207;DHT22;19565;46.602;11.534;2023-09-08T04:32:32;18.60;99.90
33207;DHT22;19565;46.602;11.534;2023-09-08T04:35:00;18.60;99.90
33207;DHT22;19565;46.602;11.534;2023-09-08T04:37:29;18.50;99.90
33207;DHT22;19565;46.602;11.534;2023-09-08T04:39:58;18.50;99.90
33207;DHT22;19565;46.602;11.534;2023-09-08T04:42:27;18.50;99.90
33207;DHT22;19565;46.602;11.534;2023-09-08T04:44:56;18.60;99.90
33207;DHT22;19565;46.602;11.534;2023-09-08T04:47:24;18.60;99.90
33207;DHT22;19565;46.602;11.534;2023-09-08T04:49:51;18.50;99.90
33207;DHT22;19565;46.602;11.534;2023-09-08T04:52:20;18.60;99.90
33207;DHT22;19565;46.602;11.534;2023-09-08T04:54:49;18.60;99.90
33207;DHT22;19565;46.602;11.534;2023-09-08T04:57:17;18.60;99.90
33207;DHT22;19565;46.602;11.534;2023-09-08T04:59:49;18.60;99.90
33207;DHT22;19565;46.602;11.534;2023-09-08T05:02:17;18.70;99.90
33207;DHT22;19565;46.602;11.534;2023-09-08T05:04:46;18.60;99.90
33207;DHT22;19565;46.602;11.534;2023-09-08T05:07:14;18.60;99.90
33207;DHT22;19565;46.602;11.534;2023-09-08T05:09:42;18.60;99.90
33207;DHT22;19565;46.602;11.534;2023-09-08T05:12:11;18.50;99.90
33207;DHT22;19565;46.602;11.534;2023-09-08T05:14:39;18.30;99.90
33207;DHT22;19565;46.602;11.534;2023-09-08T05:17:08;18.20;99.90
33207;DHT22;19565;46.602;11.534;2023-09-08T05:19:36;18.30;99.90
33207;DHT22;19565;46.602;11.534;2023-09-08T05:22:05;18.20;99.90
33207;DHT22;19565;46.602;11.534;2023-09-08T05:24:33;18.10;99.90
33207;DHT22;19565;46.602;11.534;2023-09-08T05:27:01;18.10;99.90
33207;DHT22;19565;46.602;11.534;2023-09-08T05:29:30;18.20;99.90
33207;DHT22;19565;46.602;11.534;2023-09-08T05:31:58;18.20;99.90
33207;DHT22;19565;46.602;11.534;2023-09-08T05:34:26;18.30;99.90
33207;DHT22;19565;46.602;11.534;2023-09-08T05:36:54;18.20;99.90
33207;DHT22;19565;46.602;11.534;2023-09-08T05:39:22;18.20;99.90
33207;DHT22;19565;46.602;11.534;2023-09-08T05:41:50;18.20;99.90
33207;DHT22;19565;46.602;11.534;2023-09-08T05:44:18;18.20;99.90
33207;DHT22;19565;46.602;11.534;2023-09-08T05:46:47;18.10;99.90
33207;DHT22;19565;46.602;11.534;2023-09-08T05:49:15;17.80;99.90
33207;DHT22;19565;46.602;11.534;2023-09-08T05:51:44;17.90;99.90
33207;DHT22;19565;46.602;11.534;2023-09-08T05:54:13;17.90;99.90
33207;DHT22;19565;46.602;11.534;2023-09-08T05:56:41;17.90;99.90
33207;DHT22;19565;46.602;11.534;2023-09-08T05:59:09;18.00;99.90
33207;DHT22;19565;46.602;11.534;2023-09-08T06:01:37;18.00;99.90
33207;DHT22;19565;46.602;11.534;2023-09-08T06:04:07;17.80;99.90
33207;DHT22;19565;46.602;11.534;2023-09-08T06:06:35;17.90;99.90
33207;DHT22;19565;46.602;11.534;2023-09-08T06:09:03;17.70;99.90
33207;DHT22;19565;46.602;11.534;2023-09-08T06:11:33;17.80;99.90
33207;DHT22;19565;46.602;11.534;2023-09-08T06:14:01;17.90;99.90
33207;DHT22;19565;46.602;11.534;2023-09-08T06:16:29;17.80;99.90
33207;DHT22;19565;46.602;11.534;2023-09-08T06:18:57;17.90;99.90
33207;DHT22;19565;46.602;11.534;2023-09-08T06:21:26;17.90;99.90
33207;DHT22;19565;46.602;11.534;2023-09-08T06:23:54;17.90;99.90
33207;DHT22;19565;46.602;11.534;2023-09-08T06:26:22;18.00;99.90
33207;DHT22;19565;46.602;11.534;2023-09-08T06:28:50;18.00;99.90
33207;DHT22;19565;46.602;11.534;2023-09-08T06:31:18;18.00;99.90
33207;DHT22;19565;46.602;11.534;2023-09-08T06:33:47;18.00;99.90
33207;DHT22;19565;46.602;11.534;2023-09-08T06:36:19;18.10;99.90
33207;DHT22;19565;46.602;11.534;2023-09-08T06:38:48;18.20;99.90
33207;DHT22;19565;46.602;11.534;2023-09-08T06:41:16;18.20;99.90
33207;DHT22;19565;46.602;11.534;2023-09-08T06:43:44;18.30;99.90
33207;DHT22;19565;46.602;11.534;2023-09-08T06:46:12;18.30;99.90
33207;DHT22;19565;46.602;11.534;2023-09-08T06:48:40;18.30;99.90
33207;DHT22;19565;46.602;11.534;2023-09-08T06:51:08;18.40;99.90
33207;DHT22;19565;46.602;11.534;2023-09-08T06:53:37;18.40;99.90
33207;DHT22;19565;46.602;11.534;2023-09-08T06:56:06;18.40;99.90
33207;DHT22;19565;46.602;11.534;2023-09-08T06:58:34;18.40;99.90
33207;DHT22;19565;46.602;11.534;2023-09-08T07:01:03;18.50;99.90
33207;DHT22;19565;46.602;11.534;2023-09-08T07:03:31;18.30;99.90
33207;DHT22;19565;46.602;11.534;2023-09-08T07:06:04;18.30;99.90
33207;DHT22;19565;46.602;11.534;2023-09-08T07:08:32;18.30;99.90
33207;DHT22;19565;46.602;11.534;2023-09-08T07:11:01;18.20;99.90
33207;DHT22;19565;46.602;11.534;2023-09-08T07:13:30;18.30;99.90
33207;DHT22;19565;46.602;11.534;2023-09-08T07:15:58;18.30;99.90
33207;DHT22;19565;46.602;11.534;2023-09-08T07:18:26;18.30;99.90
33207;DHT22;19565;46.602;11.534;2023-09-08T07:20:55;18.30;99.90
33207;DHT22;19565;46.602;11.534;2023-09-08T07:23:23;18.40;99.90
33207;DHT22;19565;46.602;11.534;2023-09-08T07:25:51;18.50;99.90
33207;DHT22;19565;46.602;11.534;2023-09-08T07:28:19;18.50;99.90
33207;DHT22;19565;46.602;11.534;2023-09-08T07:30:51;18.60;99.90
33207;DHT22;19565;46.602;11.534;2023-09-08T07:33:19;18.70;99.90
33207;DHT22;19565;46.602;11.534;2023-09-08T07:35:49;18.70;99.90
33207;DHT22;19565;46.602;11.534;2023-09-08T07:38:17;18.80;99.90
33207;DHT22;19565;46.602;11.534;2023-09-08T07:40:45;18.80;99.80
33207;DHT22;19565;46.602;11.534;2023-09-08T07:43:13;18.90;99.80
33207;DHT22;19565;46.602;11.534;2023-09-08T07:45:41;19.00;99.90
33207;DHT22;19565;46.602;11.534;2023-09-08T07:48:10;19.00;99.90
33207;DHT22;19565;46.602;11.534;2023-09-08T07:50:38;19.10;99.70
33207;DHT22;19565;46.602;11.534;2023-09-08T07:53:06;19.10;99.60
33207;DHT22;19565;46.602;11.534;2023-09-08T07:55:34;19.20;99.50
33207;DHT22;19565;46.602;11.534;2023-09-08T07:58:03;19.20;99.30
33207;DHT22;19565;46.602;11.534;2023-09-08T08:00:31;19.20;98.90
33207;DHT22;19565;46.602;11.534;2023-09-08T08:02:59;19.30;98.90
33207;DHT22;19565;46.602;11.534;2023-09-08T08:05:29;19.40;98.60
33207;DHT22;19565;46.602;11.534;2023-09-08T08:07:57;19.40;98.30
33207;DHT22;19565;46.602;11.534;2023-09-08T08:10:25;19.40;98.30
33207;DHT22;19565;46.602;11.534;2023-09-08T08:12:53;19.50;98.30
33207;DHT22;19565;46.602;11.534;2023-09-08T08:15:22;19.50;98.30
33207;DHT22;19565;46.602;11.534;2023-09-08T08:17:50;19.60;98.20
33207;DHT22;19565;46.602;11.534;2023-09-08T08:20:18;19.70;98.10
33207;DHT22;19565;46.602;11.534;2023-09-08T08:22:48;19.70;97.60
33207;DHT22;19565;46.602;11.534;2023-09-08T08:25:16;19.70;97.70
33207;DHT22;19565;46.602;11.534;2023-09-08T08:27:44;19.80;97.80
33207;DHT22;19565;46.602;11.534;2023-09-08T08:30:12;19.80;97.60
33207;DHT22;19565;46.602;11.534;2023-09-08T08:32:40;19.90;97.60
33207;DHT22;19565;46.602;11.534;2023-09-08T08:35:08;19.90;97.40
33207;DHT22;19565;46.602;11.534;2023-09-08T08:37:38;20.00;97.30
33207;DHT22;19565;46.602;11.534;2023-09-08T08:40:09;20.00;97.20
33207;DHT22;19565;46.602;11.534;2023-09-08T08:42:39;20.10;97.00
33207;DHT22;19565;46.602;11.534;2023-09-08T08:45:08;20.10;97.00
33207;DHT22;19565;46.602;11.534;2023-09-08T08:47:36;20.20;97.10
33207;DHT22;19565;46.602;11.534;2023-09-08T08:50:05;20.20;97.20
33207;DHT22;19565;46.602;11.534;2023-09-08T08:52:38;20.30;97.20
33207;DHT22;19565;46.602;11.534;2023-09-08T08:55:08;20.30;97.30
33207;DHT22;19565;46.602;11.534;2023-09-08T08:57:37;20.40;97.20
33207;DHT22;19565;46.602;11.534;2023-09-08T09:00:07;20.50;96.80
33207;DHT22;19565;46.602;11.534;2023-09-08T09:02:39;20.50;96.80
33207;DHT22;19565;46.602;11.534;2023-09-08T09:05:09;20.60;96.70
33207;DHT22;19565;46.602;11.534;2023-09-08T09:07:38;20.60;96.60
33207;DHT22;19565;46.602;11.534;2023-09-08T09:10:09;20.70;96.40
33207;DHT22;19565;46.602;11.534;2023-09-08T09:12:37;20.70;96.40
33207;DHT22;19565;46.602;11.534;2023-09-08T09:15:07;20.80;96.20
33207;DHT22;19565;46.602;11.534;2023-09-08T09:17:35;20.80;95.70
33207;DHT22;19565;46.602;11.534;2023-09-08T09:20:14;20.90;95.30
33207;DHT22;19565;46.602;11.534;2023-09-08T09:22:44;20.90;95.10
33207;DHT22;19565;46.602;11.534;2023-09-08T09:25:22;20.90;94.90
33207;DHT22;19565;46.602;11.534;2023-09-08T09:27:52;21.00;94.70
33207;DHT22;19565;46.602;11.534;2023-09-08T09:30:21;21.10;94.70
33207;DHT22;19565;46.602;11.534;2023-09-08T09:32:58;21.10;94.30
33207;DHT22;19565;46.602;11.534;2023-09-08T09:35:40;21.20;93.50
33207;DHT22;19565;46.602;11.534;2023-09-08T09:38:09;21.20;93.50
33207;DHT22;19565;46.602;11.534;2023-09-08T09:40:39;21.30;93.90
33207;DHT22;19565;46.602;11.534;2023-09-08T09:43:09;21.30;94.00
33207;DHT22;19565;46.602;11.534;2023-09-08T09:45:39;21.30;92.90
33207;DHT22;19565;46.602;11.534;2023-09-08T09:48:09;21.40;91.90
33207;DHT22;19565;46.602;11.534;2023-09-08T09:50:38;21.50;92.00
33207;DHT22;19565;46.602;11.534;2023-09-08T09:53:10;21.60;92.30
33207;DHT22;19565;46.602;11.534;2023-09-08T09:55:42;21.60;92.70
33207;DHT22;19565;46.602;11.534;2023-09-08T09:58:11;21.70;93.00
33207;DHT22;19565;46.602;11.534;2023-09-08T10:00:41;21.70;92.80
33207;DHT22;19565;46.602;11.534;2023-09-08T10:03:15;21.70;92.90
33207;DHT22;19565;46.602;11.534;2023-09-08T10:05:43;21.80;93.00
33207;DHT22;19565;46.602;11.534;2023-09-08T10:08:14;21.80;93.40
33207;DHT22;19565;46.602;11.534;2023-09-08T10:10:45;21.80;93.40
33207;DHT22;19565;46.602;11.534;2023-09-08T10:13:22;21.90;93.40
33207;DHT22;19565;46.602;11.534;2023-09-08T10:15:52;21.90;93.40
33207;DHT22;19565;46.602;11.534;2023-09-08T10:18:23;22.00;93.60
33207;DHT22;19565;46.602;11.534;2023-09-08T10:20:53;22.10;93.30
33207;DHT22;19565;46.602;11.534;2023-09-08T10:23:33;22.10;93.70
33207;DHT22;19565;46.602;11.534;2023-09-08T10:26:09;22.10;93.80
33207;DHT22;19565;46.602;11.534;2023-09-08T10:28:38;22.20;93.50
33207;DHT22;19565;46.602;11.534;2023-09-08T10:31:07;22.20;92.90
33207;DHT22;19565;46.602;11.534;2023-09-08T10:36:56;22.30;93.20
33207;DHT22;19565;46.602;11.534;2023-09-08T10:39:29;22.40;93.30
33207;DHT22;19565;46.602;11.534;2023-09-08T10:42:22;22.50;92.90
33207;DHT22;19565;46.602;11.534;2023-09-08T10:44:59;22.50;93.20
33207;DHT22;19565;46.602;11.534;2023-09-08T10:47:32;22.60;93.30
33207;DHT22;19565;46.602;11.534;2023-09-08T10:50:02;22.70;93.10
33207;DHT22;19565;46.602;11.534;2023-09-08T10:52:32;22.70;92.80
33207;DHT22;19565;46.602;11.534;2023-09-08T10:55:02;22.70;92.60
33207;DHT22;19565;46.602;11.534;2023-09-08T10:57:33;22.80;93.80
33207;DHT22;19565;46.602;11.534;2023-09-08T11:00:03;22.90;93.30
33207;DHT22;19565;46.602;11.534;2023-09-08T11:02:38;22.90;92.60
33207;DHT22;19565;46.602;11.534;2023-09-08T11:05:07;22.90;92.50
33207;DHT22;19565;46.602;11.534;2023-09-08T11:07:36;23.00;92.30
33207;DHT22;19565;46.602;11.534;2023-09-08T11:10:06;23.00;92.70
33207;DHT22;19565;46.602;11.534;2023-09-08T11:12:35;23.10;93.40
33207;DHT22;19565;46.602;11.534;2023-09-08T11:15:05;23.10;92.20
33207;DHT22;19565;46.602;11.534;2023-09-08T11:17:35;23.20;91.90
33207;DHT22;19565;46.602;11.534;2023-09-08T11:20:07;23.20;91.70
33207;DHT22;19565;46.602;11.534;2023-09-08T11:22:38;23.30;92.40
33207;DHT22;19565;46.602;11.534;2023-09-08T11:25:07;23.30;92.40
33207;DHT22;19565;46.602;11.534;2023-09-08T11:27:39;23.30;91.80
33207;DHT22;19565;46.602;11.534;2023-09-08T11:30:08;23.40;92.30
33207;DHT22;19565;46.602;11.534;2023-09-08T11:32:36;23.50;92.40
33207;DHT22;19565;46.602;11.534;2023-09-08T11:35:05;23.50;91.90
33207;DHT22;19565;46.602;11.534;2023-09-08T11:37:36;23.50;91.60
33207;DHT22;19565;46.602;11.534;2023-09-08T11:40:05;23.60;92.10
33207;DHT22;19565;46.602;11.534;2023-09-08T11:42:36;23.70;91.70
33207;DHT22;19565;46.602;11.534;2023-09-08T11:45:06;23.70;91.40
33207;DHT22;19565;46.602;11.534;2023-09-08T11:47:34;23.70;91.70
33207;DHT22;19565;46.602;11.534;2023-09-08T11:50:04;23.80;92.00
33207;DHT22;19565;46.602;11.534;2023-09-08T11:52:32;23.80;91.70
33207;DHT22;19565;46.602;11.534;2023-09-08T11:55:00;23.90;92.30
33207;DHT22;19565;46.602;11.534;2023-09-08T11:57:33;23.90;92.40
33207;DHT22;19565;46.602;11.534;2023-09-08T12:00:03;24.00;91.80
33207;DHT22;19565;46.602;11.534;2023-09-08T12:02:35;24.00;91.90
33207;DHT22;19565;46.602;11.534;2023-09-08T12:05:04;24.10;91.90
33207;DHT22;19565;46.602;11.534;2023-09-08T12:07:32;24.10;92.10
33207;DHT22;19565;46.602;11.534;2023-09-08T12:10:07;24.20;91.80
33207;DHT22;19565;46.602;11.534;2023-09-08T12:12:41;24.20;92.30
33207;DHT22;19565;46.602;11.534;2023-09-08T12:15:10;24.20;92.50
33207;DHT22;19565;46.602;11.534;2023-09-08T12:17:49;24.30;92.70
33207;DHT22;19565;46.602;11.534;2023-09-08T12:20:18;24.30;92.30
33207;DHT22;19565;46.602;11.534;2023-09-08T12:22:50;24.40;92.50
33207;DHT22;19565;46.602;11.534;2023-09-08T12:25:20;24.40;92.40
33207;DHT22;19565;46.602;11.534;2023-09-08T12:27:50;24.40;92.50
33207;DHT22;19565;46.602;11.534;2023-09-08T12:30:19;24.40;92.50
33207;DHT22;19565;46.602;11.534;2023-09-08T12:32:50;24.50;92.70
33207;DHT22;19565;46.602;11.534;2023-09-08T12:35:22;24.50;92.60
33207;DHT22;19565;46.602;11.534;2023-09-08T12:37:56;24.60;92.80
33207;DHT22;19565;46.602;11.534;2023-09-08T12:40:25;24.60;92.70
33207;DHT22;19565;46.602;11.534;2023-09-08T12:42:54;24.60;92.60
33207;DHT22;19565;46.602;11.534;2023-09-08T12:45:42;24.60;92.30
33207;DHT22;19565;46.602;11.534;2023-09-08T12:48:11;24.70;92.40
33207;DHT22;19565;46.602;11.534;2023-09-08T12:50:39;24.70;92.40
33207;DHT22;19565;46.602;11.534;2023-09-08T12:53:07;24.80;92.50
33207;DHT22;19565;46.602;11.534;2023-09-08T12:55:35;24.80;92.60
33207;DHT22;19565;46.602;11.534;2023-09-08T12:58:05;24.80;92.40
33207;DHT22;19565;46.602;11.534;2023-09-08T13:00:33;24.80;92.10
33207;DHT22;19565;46.602;11.534;2023-09-08T13:03:01;24.80;92.10
33207;DHT22;19565;46.602;11.534;2023-09-08T13:05:31;24.90;92.10
33207;DHT22;19565;46.602;11.534;2023-09-08T13:08:02;24.90;92.10
33207;DHT22;19565;46.602;11.534;2023-09-08T13:10:30;24.90;92.70
33207;DHT22;19565;46.602;11.534;2023-09-08T13:12:58;24.90;92.90
33207;DHT22;19565;46.602;11.534;2023-09-08T13:15:26;24.90;92.70
33207;DHT22;19565;46.602;11.534;2023-09-08T13:17:55;25.00;92.90
33207;DHT22;19565;46.602;11.534;2023-09-08T13:20:23;25.00;92.90
33207;DHT22;19565;46.602;11.534;2023-09-08T13:22:53;25.00;93.40
33207;DHT22;19565;46.602;11.534;2023-09-08T13:25:21;25.00;93.40
33207;DHT22;19565;46.602;11.534;2023-09-08T13:27:49;25.00;93.30
33207;DHT22;19565;46.602;11.534;2023-09-08T13:30:17;25.10;93.20
33207;DHT22;19565;46.602;11.534;2023-09-08T13:32:45;25.10;93.10
33207;DHT22;19565;46.602;11.534;2023-09-08T13:35:13;25.20;93.10
33207;DHT22;19565;46.602;11.534;2023-09-08T13:37:41;25.20;93.50
33207;DHT22;19565;46.602;11.534;2023-09-08T13:40:11;25.30;93.70
33207;DHT22;19565;46.602;11.534;2023-09-08T13:42:40;25.30;93.80
33207;DHT22;19565;46.602;11.534;2023-09-08T13:45:08;25.30;93.50
33207;DHT22;19565;46.602;11.534;2023-09-08T13:47:37;25.40;93.30
33207;DHT22;19565;46.602;11.534;2023-09-08T13:50:07;25.40;93.60
33207;DHT22;19565;46.602;11.534;2023-09-08T13:52:37;25.50;93.90
33207;DHT22;19565;46.602;11.534;2023-09-08T13:55:11;25.50;93.50
33207;DHT22;19565;46.602;11.534;2023-09-08T13:57:59;25.50;93.50
33207;DHT22;19565;46.602;11.534;2023-09-08T14:00:28;25.60;93.50
33207;DHT22;19565;46.602;11.534;2023-09-08T14:02:58;25.60;92.90
33207;DHT22;19565;46.602;11.534;2023-09-08T14:05:32;25.70;92.80
33207;DHT22;19565;46.602;11.534;2023-09-08T14:08:04;25.70;93.30
33207;DHT22;19565;46.602;11.534;2023-09-08T14:10:45;25.80;94.00
33207;DHT22;19565;46.602;11.534;2023-09-08T14:13:15;25.80;94.30
33207;DHT22;19565;46.602;11.534;2023-09-08T14:15:44;25.90;93.40
33207;DHT22;19565;46.602;11.534;2023-09-08T14:18:12;25.90;93.10
33207;DHT22;19565;46.602;11.534;2023-09-08T14:20:41;26.00;93.20
33207;DHT22;19565;46.602;11.534;2023-09-08T14:23:09;26.10;93.30
33207;DHT22;19565;46.602;11.534;2023-09-08T14:25:37;26.20;93.20
33207;DHT22;19565;46.602;11.534;2023-09-08T14:28:07;26.20;93.70
33207;DHT22;19565;46.602;11.534;2023-09-08T14:30:34;26.30;93.70
33207;DHT22;19565;46.602;11.534;2023-09-08T14:33:03;26.30;93.00
33207;DHT22;19565;46.602;11.534;2023-09-08T14:35:31;26.30;93.00
33207;DHT22;19565;46.602;11.534;2023-09-08T14:38:00;26.40;92.20
33207;DHT22;19565;46.602;11.534;2023-09-08T14:40:28;26.50;92.90
33207;DHT22;19565;46.602;11.534;2023-09-08T14:42:55;26.60;92.20
33207;DHT22;19565;46.602;11.534;2023-09-08T14:45:25;26.70;92.40
33207;DHT22;19565;46.602;11.534;2023-09-08T14:47:53;26.70;91.60
33207;DHT22;19565;46.602;11.534;2023-09-08T14:50:24;26.90;92.00
33207;DHT22;19565;46.602;11.534;2023-09-08T14:52:52;27.10;91.60
33207;DHT22;19565;46.602;11.534;2023-09-08T14:55:20;27.20;91.30
33207;DHT22;19565;46.602;11.534;2023-09-08T14:57:48;27.50;90.30
33207;DHT22;19565;46.602;11.534;2023-09-08T15:00:16;27.70;90.30
33207;DHT22;19565;46.602;11.534;2023-09-08T15:02:46;27.90;87.90
33207;DHT22;19565;46.602;11.534;2023-09-08T15:05:15;28.20;88.90
33207;DHT22;19565;46.602;11.534;2023-09-08T15:07:43;28.40;85.90
33207;DHT22;19565;46.602;11.534;2023-09-08T15:10:11;28.60;86.70
33207;DHT22;19565;46.602;11.534;2023-09-08T15:12:39;28.70;86.40
33207;DHT22;19565;46.602;11.534;2023-09-08T15:15:08;28.40;87.10
33207;DHT22;19565;46.602;11.534;2023-09-08T15:17:36;28.10;87.70
33207;DHT22;19565;46.602;11.534;2023-09-08T15:20:07;27.70;89.40
33207;DHT22;19565;46.602;11.534;2023-09-08T15:22:36;27.40;90.10
33207;DHT22;19565;46.602;11.534;2023-09-08T15:25:04;27.10;90.60
33207;DHT22;19565;46.602;11.534;2023-09-08T15:27:32;26.80;90.20
33207;DHT22;19565;46.602;11.534;2023-09-08T15:30:01;26.60;91.00
33207;DHT22;19565;46.602;11.534;2023-09-08T15:32:29;26.50;90.70